sensor_id;sensor_type;location;lat;lon;timestamp;P1;durP1;ratioP1;P2;durP2;ratioP2
52848;SDS011;38714;53.180;5.812;2023-07-13T00:02:22;0.77;;;0.77;;
52848;SDS011;38714;53.180;5.812;2023-07-13T00:04:49;1.40;;;0.55;;
52848;SDS011;38714;53.180;5.812;2023-07-13T00:07:15;3.60;;;1.58;;
52848;SDS011;38714;53.180;5.812;2023-07-13T00:09:45;1.35;;;0.93;;
52848;SDS011;38714;53.180;5.812;2023-07-13T00:12:28;2.13;;;0.77;;
52848;SDS011;38714;53.180;5.812;2023-07-13T00:15:03;3.00;;;0.73;;
52848;SDS011;38714;53.180;5.812;2023-07-13T00:17:32;6.20;;;0.90;;
52848;SDS011;38714;53.180;5.812;2023-07-13T00:19:58;4.80;;;0.88;;
52848;SDS011;38714;53.180;5.812;2023-07-13T00:22:24;2.60;;;0.77;;
52848;SDS011;38714;53.180;5.812;2023-07-13T00:24:53;0.82;;;0.52;;
52848;SDS011;38714;53.180;5.812;2023-07-13T00:27:22;0.63;;;0.50;;
52848;SDS011;38714;53.180;5.812;2023-07-13T00:29:49;0.80;;;0.73;;
52848;SDS011;38714;53.180;5.812;2023-07-13T00:32:14;0.52;;;0.50;;
52848;SDS011;38714;53.180;5.812;2023-07-13T00:34:40;1.52;;;0.45;;
52848;SDS011;38714;53.180;5.812;2023-07-13T00:37:06;1.08;;;0.80;;
52848;SDS011;38714;53.180;5.812;2023-07-13T00:39:33;2.88;;;0.70;;
52848;SDS011;38714;53.180;5.812;2023-07-13T00:41:59;1.08;;;0.57;;
52848;SDS011;38714;53.180;5.812;2023-07-13T00:44:26;2.38;;;0.55;;
52848;SDS011;38714;53.180;5.812;2023-07-13T00:46:51;2.35;;;0.50;;
52848;SDS011;38714;53.180;5.812;2023-07-13T00:49:23;1.13;;;0.65;;
52848;SDS011;38714;53.180;5.812;2023-07-13T00:51:51;1.27;;;0.40;;
52848;SDS011;38714;53.180;5.812;2023-07-13T00:54:25;2.15;;;0.40;;
52848;SDS011;38714;53.180;5.812;2023-07-13T00:56:55;0.73;;;0.30;;
52848;SDS011;38714;53.180;5.812;2023-07-13T00:59:25;1.40;;;0.65;;
52848;SDS011;38714;53.180;5.812;2023-07-13T01:01:51;1.05;;;0.65;;
52848;SDS011;38714;53.180;5.812;2023-07-13T01:04:18;1.40;;;0.32;;
52848;SDS011;38714;53.180;5.812;2023-07-13T01:06:44;1.65;;;0.52;;
52848;SDS011;38714;53.180;5.812;2023-07-13T01:09:12;2.95;;;0.40;;
52848;SDS011;38714;53.180;5.812;2023-07-13T01:11:41;0.30;;;0.30;;
52848;SDS011;38714;53.180;5.812;2023-07-13T01:14:07;2.70;;;0.50;;
52848;SDS011;38714;53.180;5.812;2023-07-13T01:16:34;0.95;;;0.47;;
52848;SDS011;38714;53.180;5.812;2023-07-13T01:19:01;0.43;;;0.43;;
52848;SDS011;38714;53.180;5.812;2023-07-13T01:21:32;0.50;;;0.50;;
52848;SDS011;38714;53.180;5.812;2023-07-13T01:23:58;0.77;;;0.40;;
52848;SDS011;38714;53.180;5.812;2023-07-13T01:26:24;1.00;;;0.70;;
52848;SDS011;38714;53.180;5.812;2023-07-13T01:28:50;0.20;;;0.20;;
52848;SDS011;38714;53.180;5.812;2023-07-13T01:31:15;1.88;;;0.45;;
52848;SDS011;38714;53.180;5.812;2023-07-13T01:33:41;1.00;;;0.75;;
52848;SDS011;38714;53.180;5.812;2023-07-13T01:36:07;1.15;;;0.93;;
52848;SDS011;38714;53.180;5.812;2023-07-13T01:38:34;0.77;;;0.75;;
52848;SDS011;38714;53.180;5.812;2023-07-13T01:41:00;1.42;;;0.50;;
52848;SDS011;38714;53.180;5.812;2023-07-13T01:43:26;1.23;;;0.40;;
52848;SDS011;38714;53.180;5.812;2023-07-13T01:45:52;2.08;;;0.50;;
52848;SDS011;38714;53.180;5.812;2023-07-13T01:48:17;1.83;;;0.57;;
52848;SDS011;38714;53.180;5.812;2023-07-13T01:50:44;4.10;;;0.77;;
52848;SDS011;38714;53.180;5.812;2023-07-13T01:53:10;0.75;;;0.60;;
52848;SDS011;38714;53.180;5.812;2023-07-13T01:55:35;3.22;;;0.75;;
52848;SDS011;38714;53.180;5.812;2023-07-13T01:58:02;2.15;;;0.60;;
52848;SDS011;38714;53.180;5.812;2023-07-13T02:00:28;1.92;;;0.73;;
52848;SDS011;38714;53.180;5.812;2023-07-13T02:02:54;1.65;;;0.50;;
52848;SDS011;38714;53.180;5.812;2023-07-13T02:05:20;2.13;;;0.70;;
52848;SDS011;38714;53.180;5.812;2023-07-13T02:07:45;0.60;;;0.60;;
52848;SDS011;38714;53.180;5.812;2023-07-13T02:10:11;3.95;;;0.90;;
52848;SDS011;38714;53.180;5.812;2023-07-13T02:12:37;2.72;;;1.38;;
52848;SDS011;38714;53.180;5.812;2023-07-13T02:15:03;1.10;;;0.60;;
52848;SDS011;38714;53.180;5.812;2023-07-13T02:17:30;4.03;;;0.73;;
52848;SDS011;38714;53.180;5.812;2023-07-13T02:19:55;1.95;;;0.63;;
52848;SDS011;38714;53.180;5.812;2023-07-13T02:22:21;2.20;;;0.80;;
52848;SDS011;38714;53.180;5.812;2023-07-13T02:24:47;5.72;;;1.20;;
52848;SDS011;38714;53.180;5.812;2023-07-13T02:27:13;2.90;;;0.95;;
52848;SDS011;38714;53.180;5.812;2023-07-13T02:29:39;2.05;;;1.00;;
52848;SDS011;38714;53.180;5.812;2023-07-13T02:32:05;2.15;;;1.00;;
52848;SDS011;38714;53.180;5.812;2023-07-13T02:34:31;3.28;;;0.77;;
52848;SDS011;38714;53.180;5.812;2023-07-13T02:36:57;2.40;;;0.80;;
52848;SDS011;38714;53.180;5.812;2023-07-13T02:39:22;2.05;;;0.88;;
52848;SDS011;38714;53.180;5.812;2023-07-13T02:41:48;6.32;;;0.93;;
52848;SDS011;38714;53.180;5.812;2023-07-13T02:44:14;1.92;;;1.08;;
52848;SDS011;38714;53.180;5.812;2023-07-13T02:46:40;1.88;;;1.77;;
52848;SDS011;38714;53.180;5.812;2023-07-13T02:49:06;4.80;;;1.23;;
52848;SDS011;38714;53.180;5.812;2023-07-13T02:51:32;5.15;;;1.20;;
52848;SDS011;38714;53.180;5.812;2023-07-13T02:53:59;6.43;;;1.10;;
52848;SDS011;38714;53.180;5.812;2023-07-13T02:56:27;5.20;;;1.65;;
52848;SDS011;38714;53.180;5.812;2023-07-13T02:58:54;2.78;;;1.45;;
52848;SDS011;38714;53.180;5.812;2023-07-13T03:01:20;3.78;;;1.83;;
52848;SDS011;38714;53.180;5.812;2023-07-13T03:03:46;3.72;;;1.40;;
52848;SDS011;38714;53.180;5.812;2023-07-13T03:06:13;4.43;;;1.23;;
52848;SDS011;38714;53.180;5.812;2023-07-13T03:08:39;6.40;;;2.00;;
52848;SDS011;38714;53.180;5.812;2023-07-13T03:11:15;4.47;;;1.10;;
52848;SDS011;38714;53.180;5.812;2023-07-13T03:13:43;2.50;;;1.80;;
52848;SDS011;38714;53.180;5.812;2023-07-13T03:16:09;4.40;;;1.48;;
52848;SDS011;38714;53.180;5.812;2023-07-13T03:18:35;5.30;;;1.20;;
52848;SDS011;38714;53.180;5.812;2023-07-13T03:21:02;4.70;;;1.30;;
52848;SDS011;38714;53.180;5.812;2023-07-13T03:23:28;4.15;;;1.40;;
52848;SDS011;38714;53.180;5.812;2023-07-13T03:28:30;2.47;;;1.35;;
52848;SDS011;38714;53.180;5.812;2023-07-13T03:31:00;6.38;;;1.90;;
52848;SDS011;38714;53.180;5.812;2023-07-13T03:33:30;6.40;;;1.50;;
52848;SDS011;38714;53.180;5.812;2023-07-13T03:35:56;7.25;;;1.88;;
52848;SDS011;38714;53.180;5.812;2023-07-13T03:38:22;6.20;;;2.10;;
52848;SDS011;38714;53.180;5.812;2023-07-13T03:40:48;2.63;;;1.17;;
52848;SDS011;38714;53.180;5.812;2023-07-13T03:43:14;4.03;;;1.48;;
52848;SDS011;38714;53.180;5.812;2023-07-13T03:45:40;6.53;;;1.95;;
52848;SDS011;38714;53.180;5.812;2023-07-13T03:48:06;4.70;;;1.50;;
52848;SDS011;38714;53.180;5.812;2023-07-13T03:50:31;3.42;;;1.45;;
52848;SDS011;38714;53.180;5.812;2023-07-13T03:52:57;8.77;;;1.65;;
52848;SDS011;38714;53.180;5.812;2023-07-13T03:55:23;2.97;;;1.63;;
52848;SDS011;38714;53.180;5.812;2023-07-13T03:57:54;4.35;;;1.13;;
52848;SDS011;38714;53.180;5.812;2023-07-13T04:00:23;1.63;;;1.52;;
52848;SDS011;38714;53.180;5.812;2023-07-13T04:02:49;8.23;;;1.75;;
52848;SDS011;38714;53.180;5.812;2023-07-13T04:05:15;4.57;;;1.40;;
52848;SDS011;38714;53.180;5.812;2023-07-13T04:07:41;7.13;;;1.98;;
52848;SDS011;38714;53.180;5.812;2023-07-13T04:10:07;2.13;;;1.65;;
52848;SDS011;38714;53.180;5.812;2023-07-13T04:12:33;6.00;;;1.90;;
52848;SDS011;38714;53.180;5.812;2023-07-13T04:14:59;10.15;;;1.70;;
52848;SDS011;38714;53.180;5.812;2023-07-13T04:17:25;4.10;;;1.13;;
52848;SDS011;38714;53.180;5.812;2023-07-13T04:19:50;2.58;;;1.45;;
52848;SDS011;38714;53.180;5.812;2023-07-13T04:22:16;6.82;;;1.52;;
52848;SDS011;38714;53.180;5.812;2023-07-13T04:24:42;3.03;;;1.88;;
52848;SDS011;38714;53.180;5.812;2023-07-13T04:27:08;3.33;;;2.17;;
52848;SDS011;38714;53.180;5.812;2023-07-13T04:29:33;4.65;;;2.38;;
52848;SDS011;38714;53.180;5.812;2023-07-13T04:31:59;2.22;;;1.30;;
52848;SDS011;38714;53.180;5.812;2023-07-13T04:34:25;2.55;;;1.58;;
52848;SDS011;38714;53.180;5.812;2023-07-13T04:36:50;6.45;;;1.50;;
52848;SDS011;38714;53.180;5.812;2023-07-13T04:39:17;6.20;;;1.45;;
52848;SDS011;38714;53.180;5.812;2023-07-13T04:41:43;2.75;;;1.42;;
52848;SDS011;38714;53.180;5.812;2023-07-13T04:44:08;3.85;;;1.60;;
52848;SDS011;38714;53.180;5.812;2023-07-13T04:46:34;4.57;;;1.27;;
52848;SDS011;38714;53.180;5.812;2023-07-13T04:49:00;1.83;;;1.27;;
52848;SDS011;38714;53.180;5.812;2023-07-13T04:51:25;4.90;;;1.35;;
52848;SDS011;38714;53.180;5.812;2023-07-13T04:53:52;2.35;;;1.27;;
52848;SDS011;38714;53.180;5.812;2023-07-13T04:56:17;2.65;;;1.80;;
52848;SDS011;38714;53.180;5.812;2023-07-13T04:58:44;7.40;;;2.28;;
52848;SDS011;38714;53.180;5.812;2023-07-13T05:01:10;4.57;;;1.52;;
52848;SDS011;38714;53.180;5.812;2023-07-13T05:03:36;2.50;;;1.35;;
52848;SDS011;38714;53.180;5.812;2023-07-13T05:06:06;2.42;;;1.42;;
52848;SDS011;38714;53.180;5.812;2023-07-13T05:08:34;4.40;;;1.52;;
52848;SDS011;38714;53.180;5.812;2023-07-13T05:11:00;2.85;;;1.80;;
52848;SDS011;38714;53.180;5.812;2023-07-13T05:13:27;6.07;;;1.48;;
52848;SDS011;38714;53.180;5.812;2023-07-13T05:15:59;1.90;;;1.42;;
52848;SDS011;38714;53.180;5.812;2023-07-13T05:18:27;1.77;;;1.60;;
52848;SDS011;38714;53.180;5.812;2023-07-13T05:20:57;7.45;;;2.58;;
52848;SDS011;38714;53.180;5.812;2023-07-13T05:23:23;1.30;;;1.20;;
52848;SDS011;38714;53.180;5.812;2023-07-13T05:25:49;2.45;;;1.35;;
52848;SDS011;38714;53.180;5.812;2023-07-13T05:28:15;2.92;;;1.50;;
52848;SDS011;38714;53.180;5.812;2023-07-13T05:30:44;2.10;;;1.90;;
52848;SDS011;38714;53.180;5.812;2023-07-13T05:33:11;3.03;;;1.58;;
52848;SDS011;38714;53.180;5.812;2023-07-13T05:35:38;3.40;;;1.30;;
52848;SDS011;38714;53.180;5.812;2023-07-13T05:38:03;3.97;;;1.77;;
52848;SDS011;38714;53.180;5.812;2023-07-13T05:40:29;3.80;;;1.17;;
52848;SDS011;38714;53.180;5.812;2023-07-13T05:42:55;3.72;;;1.30;;
52848;SDS011;38714;53.180;5.812;2023-07-13T05:45:20;2.53;;;0.95;;
52848;SDS011;38714;53.180;5.812;2023-07-13T05:47:46;1.88;;;1.60;;
52848;SDS011;38714;53.180;5.812;2023-07-13T05:50:12;2.05;;;1.73;;
52848;SDS011;38714;53.180;5.812;2023-07-13T05:52:37;3.28;;;1.00;;
52848;SDS011;38714;53.180;5.812;2023-07-13T05:55:03;2.15;;;1.20;;
52848;SDS011;38714;53.180;5.812;2023-07-13T05:57:29;5.40;;;1.20;;
52848;SDS011;38714;53.180;5.812;2023-07-13T05:59:55;3.60;;;1.25;;
52848;SDS011;38714;53.180;5.812;2023-07-13T06:02:21;2.38;;;1.25;;
52848;SDS011;38714;53.180;5.812;2023-07-13T06:04:47;1.13;;;0.90;;
52848;SDS011;38714;53.180;5.812;2023-07-13T06:07:12;1.92;;;1.13;;
52848;SDS011;38714;53.180;5.812;2023-07-13T06:09:38;2.38;;;1.00;;
52848;SDS011;38714;53.180;5.812;2023-07-13T06:12:04;2.17;;;1.10;;
52848;SDS011;38714;53.180;5.812;2023-07-13T06:14:30;2.25;;;1.02;;
52848;SDS011;38714;53.180;5.812;2023-07-13T06:16:55;2.80;;;1.02;;
52848;SDS011;38714;53.180;5.812;2023-07-13T06:19:21;2.55;;;0.75;;
52848;SDS011;38714;53.180;5.812;2023-07-13T06:21:47;2.97;;;1.08;;
52848;SDS011;38714;53.180;5.812;2023-07-13T06:24:12;2.15;;;1.10;;
52848;SDS011;38714;53.180;5.812;2023-07-13T06:26:38;1.55;;;1.10;;
52848;SDS011;38714;53.180;5.812;2023-07-13T06:29:04;2.80;;;0.90;;
52848;SDS011;38714;53.180;5.812;2023-07-13T06:31:30;1.23;;;1.05;;
52848;SDS011;38714;53.180;5.812;2023-07-13T06:33:56;2.55;;;1.30;;
52848;SDS011;38714;53.180;5.812;2023-07-13T06:36:22;7.80;;;1.00;;
52848;SDS011;38714;53.180;5.812;2023-07-13T06:38:47;3.40;;;1.15;;
52848;SDS011;38714;53.180;5.812;2023-07-13T06:41:13;2.80;;;0.80;;
52848;SDS011;38714;53.180;5.812;2023-07-13T06:43:39;1.85;;;1.13;;
52848;SDS011;38714;53.180;5.812;2023-07-13T06:46:04;1.73;;;0.80;;
52848;SDS011;38714;53.180;5.812;2023-07-13T06:48:30;3.53;;;1.38;;
52848;SDS011;38714;53.180;5.812;2023-07-13T06:50:56;2.30;;;1.00;;
52848;SDS011;38714;53.180;5.812;2023-07-13T06:53:22;1.90;;;1.75;;
52848;SDS011;38714;53.180;5.812;2023-07-13T06:55:48;1.85;;;0.60;;
52848;SDS011;38714;53.180;5.812;2023-07-13T06:58:15;1.48;;;0.68;;
52848;SDS011;38714;53.180;5.812;2023-07-13T07:00:42;5.93;;;0.60;;
52848;SDS011;38714;53.180;5.812;2023-07-13T07:03:08;0.73;;;0.63;;
52848;SDS011;38714;53.180;5.812;2023-07-13T07:05:34;3.05;;;0.80;;
52848;SDS011;38714;53.180;5.812;2023-07-13T07:07:59;0.98;;;0.75;;
52848;SDS011;38714;53.180;5.812;2023-07-13T07:10:25;2.50;;;0.85;;
52848;SDS011;38714;53.180;5.812;2023-07-13T07:12:56;2.60;;;1.00;;
52848;SDS011;38714;53.180;5.812;2023-07-13T07:15:22;1.52;;;0.93;;
52848;SDS011;38714;53.180;5.812;2023-07-13T07:17:48;3.42;;;1.08;;
52848;SDS011;38714;53.180;5.812;2023-07-13T07:20:14;2.30;;;0.70;;
52848;SDS011;38714;53.180;5.812;2023-07-13T07:22:39;5.55;;;1.30;;
52848;SDS011;38714;53.180;5.812;2023-07-13T07:25:05;1.15;;;0.90;;
52848;SDS011;38714;53.180;5.812;2023-07-13T07:27:31;0.77;;;0.63;;
52848;SDS011;38714;53.180;5.812;2023-07-13T07:29:57;1.35;;;0.75;;
52848;SDS011;38714;53.180;5.812;2023-07-13T07:32:23;1.60;;;1.00;;
52848;SDS011;38714;53.180;5.812;2023-07-13T07:34:49;2.45;;;0.77;;
52848;SDS011;38714;53.180;5.812;2023-07-13T07:37:15;1.48;;;0.88;;
52848;SDS011;38714;53.180;5.812;2023-07-13T07:39:42;1.88;;;1.00;;
52848;SDS011;38714;53.180;5.812;2023-07-13T07:42:08;1.65;;;1.00;;
52848;SDS011;38714;53.180;5.812;2023-07-13T07:44:34;2.78;;;1.02;;
52848;SDS011;38714;53.180;5.812;2023-07-13T07:47:00;2.10;;;1.23;;
52848;SDS011;38714;53.180;5.812;2023-07-13T07:49:26;1.42;;;1.23;;
52848;SDS011;38714;53.180;5.812;2023-07-13T07:51:52;6.47;;;1.27;;
52848;SDS011;38714;53.180;5.812;2023-07-13T07:54:17;3.63;;;1.20;;
52848;SDS011;38714;53.180;5.812;2023-07-13T07:56:43;3.58;;;1.00;;
52848;SDS011;38714;53.180;5.812;2023-07-13T07:59:09;1.90;;;1.05;;
52848;SDS011;38714;53.180;5.812;2023-07-13T08:01:35;1.17;;;0.88;;
52848;SDS011;38714;53.180;5.812;2023-07-13T08:04:01;3.22;;;0.93;;
52848;SDS011;38714;53.180;5.812;2023-07-13T08:06:27;4.05;;;1.13;;
52848;SDS011;38714;53.180;5.812;2023-07-13T08:08:53;3.05;;;1.42;;
52848;SDS011;38714;53.180;5.812;2023-07-13T08:11:20;1.52;;;1.42;;
52848;SDS011;38714;53.180;5.812;2023-07-13T08:13:47;3.83;;;0.70;;
52848;SDS011;38714;53.180;5.812;2023-07-13T08:16:13;2.05;;;0.88;;
52848;SDS011;38714;53.180;5.812;2023-07-13T08:18:38;1.95;;;0.82;;
52848;SDS011;38714;53.180;5.812;2023-07-13T08:21:04;1.38;;;0.98;;
52848;SDS011;38714;53.180;5.812;2023-07-13T08:23:30;4.35;;;0.90;;
52848;SDS011;38714;53.180;5.812;2023-07-13T08:25:57;1.27;;;0.73;;
52848;SDS011;38714;53.180;5.812;2023-07-13T08:28:23;1.73;;;0.85;;
52848;SDS011;38714;53.180;5.812;2023-07-13T08:30:49;2.20;;;1.23;;
52848;SDS011;38714;53.180;5.812;2023-07-13T08:33:15;1.13;;;0.98;;
52848;SDS011;38714;53.180;5.812;2023-07-13T08:35:42;2.85;;;1.17;;
52848;SDS011;38714;53.180;5.812;2023-07-13T08:38:14;3.15;;;0.80;;
52848;SDS011;38714;53.180;5.812;2023-07-13T08:40:40;1.40;;;0.75;;
52848;SDS011;38714;53.180;5.812;2023-07-13T08:43:09;0.98;;;0.50;;
52848;SDS011;38714;53.180;5.812;2023-07-13T08:45:44;3.60;;;0.73;;
52848;SDS011;38714;53.180;5.812;2023-07-13T08:48:19;1.70;;;0.80;;
52848;SDS011;38714;53.180;5.812;2023-07-13T08:50:54;0.77;;;0.73;;
52848;SDS011;38714;53.180;5.812;2023-07-13T08:53:21;1.90;;;0.70;;
52848;SDS011;38714;53.180;5.812;2023-07-13T08:55:51;3.67;;;0.90;;
52848;SDS011;38714;53.180;5.812;2023-07-13T08:58:22;2.38;;;0.88;;
52848;SDS011;38714;53.180;5.812;2023-07-13T09:01:40;1.77;;;1.00;;
52848;SDS011;38714;53.180;5.812;2023-07-13T09:03:50;4.07;;;1.63;;
52848;SDS011;38714;53.180;5.812;2023-07-13T09:06:23;0.60;;;0.60;;
52848;SDS011;38714;53.180;5.812;2023-07-13T09:09:04;2.75;;;0.90;;
52848;SDS011;38714;53.180;5.812;2023-07-13T09:14:46;1.52;;;0.63;;
52848;SDS011;38714;53.180;5.812;2023-07-13T09:17:16;1.83;;;0.80;;
52848;SDS011;38714;53.180;5.812;2023-07-13T09:19:45;0.98;;;0.80;;
52848;SDS011;38714;53.180;5.812;2023-07-13T09:22:15;2.63;;;1.05;;
52848;SDS011;38714;53.180;5.812;2023-07-13T09:24:58;3.30;;;0.80;;
52848;SDS011;38714;53.180;5.812;2023-07-13T09:27:46;3.15;;;0.95;;
52848;SDS011;38714;53.180;5.812;2023-07-13T09:32:39;1.45;;;0.55;;
52848;SDS011;38714;53.180;5.812;2023-07-13T09:35:15;0.85;;;0.68;;
52848;SDS011;38714;53.180;5.812;2023-07-13T09:37:44;1.90;;;0.63;;
52848;SDS011;38714;53.180;5.812;2023-07-13T09:40:17;2.22;;;0.63;;
52848;SDS011;38714;53.180;5.812;2023-07-13T09:42:50;0.57;;;0.38;;
52848;SDS011;38714;53.180;5.812;2023-07-13T09:45:27;0.65;;;0.60;;
52848;SDS011;38714;53.180;5.812;2023-07-13T09:48:04;1.23;;;0.60;;
52848;SDS011;38714;53.180;5.812;2023-07-13T09:50:35;0.73;;;0.70;;
52848;SDS011;38714;53.180;5.812;2023-07-13T09:53:01;0.50;;;0.50;;
52848;SDS011;38714;53.180;5.812;2023-07-13T09:58:02;3.83;;;0.80;;
52848;SDS011;38714;53.180;5.812;2023-07-13T10:00:35;2.35;;;0.88;;
52848;SDS011;38714;53.180;5.812;2023-07-13T10:05:41;1.13;;;0.80;;
52848;SDS011;38714;53.180;5.812;2023-07-13T10:08:19;2.10;;;0.75;;
52848;SDS011;38714;53.180;5.812;2023-07-13T10:10:54;2.20;;;0.80;;
52848;SDS011;38714;53.180;5.812;2023-07-13T10:13:25;4.38;;;0.90;;
52848;SDS011;38714;53.180;5.812;2023-07-13T10:15:57;0.75;;;0.75;;
52848;SDS011;38714;53.180;5.812;2023-07-13T10:18:24;2.83;;;1.10;;
52848;SDS011;38714;53.180;5.812;2023-07-13T10:20:58;3.40;;;0.98;;
52848;SDS011;38714;53.180;5.812;2023-07-13T10:23:35;2.58;;;1.02;;
52848;SDS011;38714;53.180;5.812;2023-07-13T10:26:01;2.28;;;0.95;;
52848;SDS011;38714;53.180;5.812;2023-07-13T10:28:30;2.72;;;0.98;;
52848;SDS011;38714;53.180;5.812;2023-07-13T10:31:00;4.78;;;0.60;;
52848;SDS011;38714;53.180;5.812;2023-07-13T10:33:27;0.93;;;0.70;;
52848;SDS011;38714;53.180;5.812;2023-07-13T10:36:03;1.10;;;1.02;;
52848;SDS011;38714;53.180;5.812;2023-07-13T10:38:37;3.13;;;0.93;;
52848;SDS011;38714;53.180;5.812;2023-07-13T10:41:05;2.45;;;0.70;;
52848;SDS011;38714;53.180;5.812;2023-07-13T10:43:37;3.03;;;0.88;;
52848;SDS011;38714;53.180;5.812;2023-07-13T10:46:16;1.95;;;0.90;;
52848;SDS011;38714;53.180;5.812;2023-07-13T10:48:44;0.90;;;0.80;;
52848;SDS011;38714;53.180;5.812;2023-07-13T10:51:14;1.90;;;1.25;;
52848;SDS011;38714;53.180;5.812;2023-07-13T10:53:42;2.20;;;1.45;;
52848;SDS011;38714;53.180;5.812;2023-07-13T10:58:44;3.63;;;1.05;;
52848;SDS011;38714;53.180;5.812;2023-07-13T11:01:17;2.20;;;0.80;;
52848;SDS011;38714;53.180;5.812;2023-07-13T11:19:08;2.78;;;1.30;;
52848;SDS011;38714;53.180;5.812;2023-07-13T11:22:01;6.40;;;1.63;;
52848;SDS011;38714;53.180;5.812;2023-07-13T11:24:28;2.13;;;0.77;;
52848;SDS011;38714;53.180;5.812;2023-07-13T11:27:22;1.95;;;1.05;;
52848;SDS011;38714;53.180;5.812;2023-07-13T11:29:51;3.88;;;0.93;;
52848;SDS011;38714;53.180;5.812;2023-07-13T11:32:22;2.13;;;0.90;;
52848;SDS011;38714;53.180;5.812;2023-07-13T11:34:55;2.67;;;0.93;;
52848;SDS011;38714;53.180;5.812;2023-07-13T11:37:21;4.43;;;0.77;;
52848;SDS011;38714;53.180;5.812;2023-07-13T11:39:48;2.05;;;0.93;;
52848;SDS011;38714;53.180;5.812;2023-07-13T11:42:17;1.65;;;0.65;;
52848;SDS011;38714;53.180;5.812;2023-07-13T11:44:46;0.88;;;0.80;;
52848;SDS011;38714;53.180;5.812;2023-07-13T11:47:17;2.25;;;0.95;;
52848;SDS011;38714;53.180;5.812;2023-07-13T11:49:50;1.13;;;0.70;;
52848;SDS011;38714;53.180;5.812;2023-07-13T11:54:53;1.38;;;0.90;;
52848;SDS011;38714;53.180;5.812;2023-07-13T11:57:23;4.03;;;0.80;;
52848;SDS011;38714;53.180;5.812;2023-07-13T11:59:54;4.45;;;0.90;;
52848;SDS011;38714;53.180;5.812;2023-07-13T12:02:26;2.08;;;0.88;;
52848;SDS011;38714;53.180;5.812;2023-07-13T12:05:02;1.17;;;0.60;;
52848;SDS011;38714;53.180;5.812;2023-07-13T12:07:30;2.55;;;1.00;;
52848;SDS011;38714;53.180;5.812;2023-07-13T12:12:56;4.90;;;1.00;;
52848;SDS011;38714;53.180;5.812;2023-07-13T12:15:40;3.25;;;0.95;;
52848;SDS011;38714;53.180;5.812;2023-07-13T12:18:15;1.02;;;1.00;;
52848;SDS011;38714;53.180;5.812;2023-07-13T12:20:43;3.45;;;1.02;;
52848;SDS011;38714;53.180;5.812;2023-07-13T12:23:15;5.20;;;1.00;;
52848;SDS011;38714;53.180;5.812;2023-07-13T12:25:50;3.15;;;1.00;;
52848;SDS011;38714;53.180;5.812;2023-07-13T12:28:20;2.78;;;1.33;;
52848;SDS011;38714;53.180;5.812;2023-07-13T12:30:48;1.50;;;1.20;;
52848;SDS011;38714;53.180;5.812;2023-07-13T12:33:15;3.67;;;1.10;;
52848;SDS011;38714;53.180;5.812;2023-07-13T12:35:42;8.43;;;1.50;;
52848;SDS011;38714;53.180;5.812;2023-07-13T12:38:15;2.78;;;1.65;;
52848;SDS011;38714;53.180;5.812;2023-07-13T12:40:41;2.55;;;1.23;;
52848;SDS011;38714;53.180;5.812;2023-07-13T12:43:11;3.75;;;1.67;;
52848;SDS011;38714;53.180;5.812;2023-07-13T12:45:38;4.75;;;1.38;;
52848;SDS011;38714;53.180;5.812;2023-07-13T12:48:05;1.88;;;0.80;;
52848;SDS011;38714;53.180;5.812;2023-07-13T12:50:42;1.95;;;1.38;;
52848;SDS011;38714;53.180;5.812;2023-07-13T12:53:15;3.28;;;1.05;;
52848;SDS011;38714;53.180;5.812;2023-07-13T12:55:48;5.35;;;1.50;;
52848;SDS011;38714;53.180;5.812;2023-07-13T12:58:38;2.25;;;1.20;;
52848;SDS011;38714;53.180;5.812;2023-07-13T13:01:10;2.85;;;1.10;;
52848;SDS011;38714;53.180;5.812;2023-07-13T13:03:38;1.90;;;1.00;;
52848;SDS011;38714;53.180;5.812;2023-07-13T13:08:48;3.35;;;1.10;;
52848;SDS011;38714;53.180;5.812;2023-07-13T13:11:16;2.53;;;1.30;;
52848;SDS011;38714;53.180;5.812;2023-07-13T13:13:42;3.83;;;1.13;;
52848;SDS011;38714;53.180;5.812;2023-07-13T13:16:20;2.65;;;1.25;;
52848;SDS011;38714;53.180;5.812;2023-07-13T13:19:17;4.35;;;1.25;;
52848;SDS011;38714;53.180;5.812;2023-07-13T13:21:50;3.63;;;1.23;;
52848;SDS011;38714;53.180;5.812;2023-07-13T13:24:19;3.75;;;1.20;;
52848;SDS011;38714;53.180;5.812;2023-07-13T13:26:46;3.42;;;1.10;;
52848;SDS011;38714;53.180;5.812;2023-07-13T13:29:17;2.08;;;0.82;;
52848;SDS011;38714;53.180;5.812;2023-07-13T13:31:45;2.80;;;1.20;;
52848;SDS011;38714;53.180;5.812;2023-07-13T13:34:13;4.07;;;1.30;;
52848;SDS011;38714;53.180;5.812;2023-07-13T13:36:41;2.17;;;1.30;;
52848;SDS011;38714;53.180;5.812;2023-07-13T13:39:18;3.42;;;1.00;;
52848;SDS011;38714;53.180;5.812;2023-07-13T13:41:47;2.22;;;0.80;;
52848;SDS011;38714;53.180;5.812;2023-07-13T13:44:15;1.95;;;0.85;;
52848;SDS011;38714;53.180;5.812;2023-07-13T13:46:41;1.42;;;0.98;;
52848;SDS011;38714;53.180;5.812;2023-07-13T13:49:32;3.97;;;1.15;;
52848;SDS011;38714;53.180;5.812;2023-07-13T13:51:56;3.35;;;1.05;;
52848;SDS011;38714;53.180;5.812;2023-07-13T13:54:23;4.95;;;1.25;;
52848;SDS011;38714;53.180;5.812;2023-07-13T13:56:51;3.17;;;1.13;;
52848;SDS011;38714;53.180;5.812;2023-07-13T13:59:18;3.55;;;1.05;;
52848;SDS011;38714;53.180;5.812;2023-07-13T14:01:44;3.85;;;1.27;;
52848;SDS011;38714;53.180;5.812;2023-07-13T14:04:17;2.35;;;1.63;;
52848;SDS011;38714;53.180;5.812;2023-07-13T14:06:44;1.80;;;1.37;;
52848;SDS011;38714;53.180;5.812;2023-07-13T14:09:11;2.95;;;1.33;;
52848;SDS011;38714;53.180;5.812;2023-07-13T14:11:38;4.15;;;1.33;;
52848;SDS011;38714;53.180;5.812;2023-07-13T14:14:17;2.60;;;1.13;;
52848;SDS011;38714;53.180;5.812;2023-07-13T14:16:46;2.97;;;1.20;;
52848;SDS011;38714;53.180;5.812;2023-07-13T14:19:18;3.33;;;1.23;;
52848;SDS011;38714;53.180;5.812;2023-07-13T14:21:44;3.83;;;1.15;;
52848;SDS011;38714;53.180;5.812;2023-07-13T14:24:12;1.33;;;1.17;;
52848;SDS011;38714;53.180;5.812;2023-07-13T14:26:39;4.32;;;1.55;;
52848;SDS011;38714;53.180;5.812;2023-07-13T14:29:13;2.35;;;1.40;;
52848;SDS011;38714;53.180;5.812;2023-07-13T14:31:42;4.13;;;1.23;;
52848;SDS011;38714;53.180;5.812;2023-07-13T14:34:09;2.70;;;1.08;;
52848;SDS011;38714;53.180;5.812;2023-07-13T14:36:38;4.55;;;1.05;;
52848;SDS011;38714;53.180;5.812;2023-07-13T14:39:15;3.40;;;1.10;;
52848;SDS011;38714;53.180;5.812;2023-07-13T14:41:48;1.48;;;0.98;;
52848;SDS011;38714;53.180;5.812;2023-07-13T14:44:24;2.80;;;1.13;;
52848;SDS011;38714;53.180;5.812;2023-07-13T14:46:54;3.75;;;1.40;;
52848;SDS011;38714;53.180;5.812;2023-07-13T14:52:03;3.47;;;1.10;;
52848;SDS011;38714;53.180;5.812;2023-07-13T14:54:42;1.15;;;0.95;;
52848;SDS011;38714;53.180;5.812;2023-07-13T14:57:12;4.70;;;1.48;;
52848;SDS011;38714;53.180;5.812;2023-07-13T14:59:39;5.05;;;1.23;;
52848;SDS011;38714;53.180;5.812;2023-07-13T15:02:48;4.13;;;1.25;;
52848;SDS011;38714;53.180;5.812;2023-07-13T15:04:58;4.95;;;1.27;;
52848;SDS011;38714;53.180;5.812;2023-07-13T15:07:24;5.20;;;1.40;;
52848;SDS011;38714;53.180;5.812;2023-07-13T15:09:51;2.85;;;1.92;;
52848;SDS011;38714;53.180;5.812;2023-07-13T15:12:17;2.15;;;1.23;;
52848;SDS011;38714;53.180;5.812;2023-07-13T15:14:43;4.18;;;1.65;;
52848;SDS011;38714;53.180;5.812;2023-07-13T15:17:29;5.93;;;1.98;;
52848;SDS011;38714;53.180;5.812;2023-07-13T15:20:02;4.10;;;1.50;;
52848;SDS011;38714;53.180;5.812;2023-07-13T15:22:36;2.83;;;1.63;;
52848;SDS011;38714;53.180;5.812;2023-07-13T15:25:02;4.50;;;1.73;;
52848;SDS011;38714;53.180;5.812;2023-07-13T15:27:28;4.72;;;1.40;;
52848;SDS011;38714;53.180;5.812;2023-07-13T15:29:54;2.45;;;1.45;;
52848;SDS011;38714;53.180;5.812;2023-07-13T15:32:20;1.58;;;1.35;;
52848;SDS011;38714;53.180;5.812;2023-07-13T15:34:46;3.40;;;1.52;;
52848;SDS011;38714;53.180;5.812;2023-07-13T15:37:15;4.90;;;1.77;;
52848;SDS011;38714;53.180;5.812;2023-07-13T15:39:42;1.50;;;1.15;;